Time;durP1;ratioP1;P1;durP2;ratioP2;P2;SDS_P1;SDS_P2;PMS_P1;PMS_P2;Temp;Humidity;BMP_temperature;BMP_pressure;BME280_temperature;BME280_humidity;BME280_pressure;Samples;Min_cycle;Max_cycle;Signal;HPM_P1;HPM_P2
2021/03/15 00:01:44;;;;;;;15.47;4.40;;;;;;;;;;5070857;28;20020;-84
2021/03/15 00:04:09;;;;;;;17.40;4.07;;;;;;;;;;5071190;28;20441;-84
2021/03/15 00:06:34;;;;;;;17.90;4.10;;;;;;;;;;5070819;28;20572;-84
2021/03/15 00:08:59;;;;;;;18.70;4.30;;;;;;;;;;5070703;28;20016;-84
2021/03/15 00:11:24;;;;;;;18.93;4.20;;;;;;;;;;5070827;28;20024;-84
2021/03/15 00:13:49;;;;;;;16.97;4.60;;;;;;;;;;5072170;28;20031;-84
2021/03/15 00:16:15;;;;;;;18.13;4.73;;;;;;;;;;5071860;28;20032;-84
2021/03/15 00:18:40;;;;;;;18.17;4.60;;;;;;;;;;5071960;28;20447;-84
2021/03/15 00:21:05;;;;;;;22.10;5.10;;;;;;;;;;5070467;28;20134;-84
2021/03/15 00:23:30;;;;;;;18.20;4.83;;;;;;;;;;5072330;28;20020;-84
2021/03/15 00:25:55;;;;;;;12.67;3.73;;;;;;;;;;5074181;28;20035;-84
2021/03/15 00:28:21;;;;;;;16.10;4.10;;;;;;;;;;5076268;28;20104;-85
2021/03/15 00:30:46;;;;;;;15.47;4.03;;;;;;;;;;5066436;28;20382;-85
2021/03/15 00:33:11;;;;;;;19.20;4.33;;;;;;;;;;5062028;28;20020;-85
2021/03/15 00:35:36;;;;;;;17.87;4.80;;;;;;;;;;5074526;28;20692;-84
2021/03/15 00:38:02;;;;;;;18.10;4.70;;;;;;;;;;5074544;28;20411;-85
2021/03/15 00:40:27;;;;;;;16.63;4.50;;;;;;;;;;5074589;28;20020;-85
2021/03/15 00:42:53;;;;;;;13.23;3.73;;;;;;;;;;5075707;28;20008;-84
2021/03/15 00:45:22;;;;;;;17.67;4.60;;;;;;;;;;5074424;28;20016;-84
2021/03/15 00:47:48;;;;;;;16.20;4.00;;;;;;;;;;5074076;28;20173;-84
2021/03/15 00:50:13;;;;;;;20.13;4.43;;;;;;;;;;5074196;28;20486;-84
2021/03/15 00:52:39;;;;;;;18.07;5.33;;;;;;;;;;5074552;28;20031;-85
2021/03/15 00:55:04;;;;;;;18.30;4.67;;;;;;;;;;5073845;28;20028;-84
2021/03/15 00:57:29;;;;;;;18.23;4.70;;;;;;;;;;5074411;28;20028;-85
2021/03/15 00:59:54;;;;;;;23.17;5.20;;;;;;;;;;5075545;28;20028;-84
2021/03/15 01:02:19;;;;;;;18.50;4.67;;;;;;;;;;5074101;28;20153;-84
2021/03/15 01:04:45;;;;;;;15.43;4.57;;;;;;;;;;5074205;28;20024;-84
2021/03/15 01:07:11;;;;;;;24.33;5.97;;;;;;;;;;5073867;28;20116;-84
2021/03/15 01:09:36;;;;;;;15.77;5.20;;;;;;;;;;5073771;28;20051;-84
2021/03/15 01:12:01;;;;;;;19.40;4.67;;;;;;;;;;5074036;28;20047;-84
2021/03/15 01:14:26;;;;;;;19.17;5.37;;;;;;;;;;5075367;28;20051;-84
2021/03/15 01:16:52;;;;;;;17.73;4.90;;;;;;;;;;5075018;28;20075;-84
2021/03/15 01:19:17;;;;;;;21.23;5.23;;;;;;;;;;5072004;28;20059;-84
2021/03/15 01:21:42;;;;;;;16.53;4.87;;;;;;;;;;5071848;28;20024;-84
2021/03/15 01:24:08;;;;;;;19.00;5.60;;;;;;;;;;5072139;28;20495;-84
2021/03/15 01:26:33;;;;;;;26.07;6.97;;;;;;;;;;5073147;28;20153;-84
2021/03/15 01:28:59;;;;;;;16.43;5.63;;;;;;;;;;5073413;28;20021;-84
2021/03/15 01:31:24;;;;;;;19.90;5.47;;;;;;;;;;5072575;28;20016;-84
2021/03/15 01:33:49;;;;;;;21.97;7.00;;;;;;;;;;5071799;28;20028;-84
2021/03/15 01:36:14;;;;;;;18.23;5.37;;;;;;;;;;5070870;28;20052;-84
2021/03/15 01:38:40;;;;;;;19.60;6.07;;;;;;;;;;5071324;28;20024;-84
2021/03/15 01:41:05;;;;;;;18.17;7.33;;;;;;;;;;5071425;28;20020;-84
2021/03/15 01:43:30;;;;;;;21.50;7.43;;;;;;;;;;5072307;28;20014;-85
2021/03/15 01:45:55;;;;;;;22.40;7.40;;;;;;;;;;5071320;28;20016;-84
2021/03/15 01:48:21;;;;;;;17.07;6.67;;;;;;;;;;5070707;28;20452;-84
2021/03/15 01:50:47;;;;;;;16.77;7.30;;;;;;;;;;5074106;28;20024;-84
2021/03/15 01:53:13;;;;;;;18.50;8.17;;;;;;;;;;5072982;28;20066;-84
2021/03/15 01:55:39;;;;;;;21.17;7.67;;;;;;;;;;5073095;28;20016;-84
2021/03/15 01:58:05;;;;;;;15.67;7.37;;;;;;;;;;5072378;28;20026;-84
2021/03/15 02:00:30;;;;;;;20.00;9.20;;;;;;;;;;5072813;28;20108;-84
2021/03/15 02:02:59;;;;;;;16.70;8.27;;;;;;;;;;5073135;28;20107;-84
2021/03/15 02:05:28;;;;;;;22.43;7.97;;;;;;;;;;5072487;28;20729;-84
2021/03/15 02:07:53;;;;;;;18.23;7.03;;;;;;;;;;5074800;28;20091;-84
2021/03/15 02:10:19;;;;;;;15.67;8.27;;;;;;;;;;5073945;28;20425;-84
2021/03/15 02:13:02;;;;;;;19.53;9.40;;;;;;;;;;5073826;28;20472;-84
2021/03/15 02:15:36;;;;;;;15.90;9.17;;;;;;;;;;5071830;28;20121;-84
2021/03/15 02:18:13;;;;;;;18.20;8.00;;;;;;;;;;5072597;28;20021;-85
2021/03/15 02:20:57;;;;;;;23.27;12.10;;;;;;;;;;5072196;28;20024;-84
2021/03/15 02:23:28;;;;;;;18.63;9.37;;;;;;;;;;5072601;28;20013;-84
2021/03/15 02:26:03;;;;;;;16.33;8.60;;;;;;;;;;5073548;28;20112;-85
2021/03/15 02:28:46;;;;;;;22.33;10.50;;;;;;;;;;5072348;28;20586;-85
2021/03/15 02:31:17;;;;;;;18.60;9.90;;;;;;;;;;5073075;28;20027;-85
2021/03/15 02:33:49;;;;;;;22.73;10.20;;;;;;;;;;5072515;28;20062;-85
2021/03/15 02:36:15;;;;;;;21.57;10.57;;;;;;;;;;5073038;28;20024;-84
2021/03/15 02:38:42;;;;;;;17.53;9.80;;;;;;;;;;5073436;28;20013;-84
2021/03/15 02:41:08;;;;;;;21.80;9.83;;;;;;;;;;5073641;28;20017;-84
2021/03/15 02:43:55;;;;;;;18.13;9.40;;;;;;;;;;5071959;28;20012;-84
2021/03/15 02:46:22;;;;;;;18.23;10.20;;;;;;;;;;5070542;28;20031;-84
2021/03/15 02:48:48;;;;;;;17.83;10.20;;;;;;;;;;5072794;28;20012;-84
2021/03/15 02:51:14;;;;;;;17.93;10.33;;;;;;;;;;5071906;28;20020;-84
2021/03/15 02:53:40;;;;;;;17.67;10.17;;;;;;;;;;5071646;28;20025;-84
2021/03/15 02:56:08;;;;;;;19.73;8.47;;;;;;;;;;5073092;28;20021;-84
2021/03/15 02:58:34;;;;;;;16.60;9.60;;;;;;;;;;5071613;28;20442;-84
2021/03/15 03:01:01;;;;;;;22.67;8.97;;;;;;;;;;5073051;28;20091;-84
2021/03/15 03:03:27;;;;;;;24.37;8.77;;;;;;;;;;5070975;28;20024;-84
2021/03/15 03:05:53;;;;;;;13.50;8.30;;;;;;;;;;5072786;28;20451;-84
2021/03/15 03:08:19;;;;;;;25.07;9.17;;;;;;;;;;5073054;28;20077;-84
2021/03/15 03:10:44;;;;;;;18.30;7.23;;;;;;;;;;5071611;28;20111;-84
2021/03/15 03:13:11;;;;;;;17.30;6.53;;;;;;;;;;5071209;28;20029;-84
2021/03/15 03:15:36;;;;;;;15.27;6.17;;;;;;;;;;5071553;28;20032;-84
2021/03/15 03:18:02;;;;;;;14.90;5.43;;;;;;;;;;5066188;28;20100;-84
2021/03/15 03:20:28;;;;;;;15.87;4.73;;;;;;;;;;5068985;28;20016;-84
2021/03/15 03:22:54;;;;;;;14.47;4.90;;;;;;;;;;5071110;28;20008;-84
2021/03/15 03:25:21;;;;;;;14.63;4.33;;;;;;;;;;5071510;28;20040;-84
2021/03/15 03:27:48;;;;;;;10.10;4.17;;;;;;;;;;5070918;28;20025;-84
2021/03/15 03:30:14;;;;;;;13.37;4.00;;;;;;;;;;5071310;28;20024;-84
2021/03/15 03:32:40;;;;;;;12.67;4.30;;;;;;;;;;5071133;28;20078;-84
2021/03/15 03:35:06;;;;;;;12.77;4.43;;;;;;;;;;5072091;28;20056;-83
2021/03/15 03:37:31;;;;;;;11.50;4.63;;;;;;;;;;5071090;28;20054;-84
2021/03/15 03:39:56;;;;;;;11.73;5.27;;;;;;;;;;5072409;28;20024;-84
2021/03/15 03:42:22;;;;;;;11.23;4.10;;;;;;;;;;5071046;28;20107;-84
2021/03/15 03:44:47;;;;;;;12.10;4.83;;;;;;;;;;5070479;28;20038;-84
2021/03/15 03:47:12;;;;;;;12.97;4.73;;;;;;;;;;5072099;28;20025;-84
2021/03/15 03:49:37;;;;;;;16.67;5.87;;;;;;;;;;5072276;28;20444;-84
2021/03/15 03:52:06;;;;;;;17.07;5.77;;;;;;;;;;5070964;28;20025;-84
2021/03/15 03:54:36;;;;;;;16.27;5.33;;;;;;;;;;5072335;28;20456;-83
2021/03/15 03:57:05;;;;;;;10.50;4.97;;;;;;;;;;5066662;28;20392;-84
2021/03/15 03:59:31;;;;;;;15.77;5.67;;;;;;;;;;5068385;28;20107;-83
2021/03/15 04:01:57;;;;;;;12.83;6.43;;;;;;;;;;5072023;28;20385;-84
2021/03/15 04:04:24;;;;;;;16.97;7.30;;;;;;;;;;5070767;28;20039;-84
2021/03/15 04:06:50;;;;;;;13.10;7.17;;;;;;;;;;5071812;28;20078;-84
2021/03/15 04:09:16;;;;;;;14.87;7.37;;;;;;;;;;5070465;28;20032;-84
2021/03/15 04:11:46;;;;;;;15.53;8.90;;;;;;;;;;5070424;28;20039;-84
2021/03/15 04:14:13;;;;;;;14.53;7.93;;;;;;;;;;5072113;28;20035;-83
2021/03/15 04:16:39;;;;;;;16.33;8.13;;;;;;;;;;5070639;28;20025;-84
2021/03/15 04:19:06;;;;;;;17.27;7.97;;;;;;;;;;5072053;28;20476;-84
2021/03/15 04:21:32;;;;;;;19.10;9.60;;;;;;;;;;5070084;28;20064;-84
2021/03/15 04:23:59;;;;;;;19.10;9.47;;;;;;;;;;5071445;28;20012;-83
2021/03/15 04:26:25;;;;;;;13.30;7.80;;;;;;;;;;5070493;28;20016;-84
2021/03/15 04:28:51;;;;;;;15.53;8.07;;;;;;;;;;5070544;28;20019;-83
2021/03/15 04:31:17;;;;;;;18.37;10.70;;;;;;;;;;5070583;28;20012;-84
2021/03/15 04:33:42;;;;;;;19.87;8.73;;;;;;;;;;5070327;28;20020;-83
2021/03/15 04:36:08;;;;;;;15.77;8.20;;;;;;;;;;5070153;28;20490;-83
2021/03/15 04:38:34;;;;;;;17.93;7.93;;;;;;;;;;5070226;28;20056;-83
2021/03/15 04:41:00;;;;;;;14.97;8.13;;;;;;;;;;5071835;28;20027;-83
2021/03/15 04:43:25;;;;;;;16.73;8.40;;;;;;;;;;5069657;28;20016;-84
2021/03/15 04:45:50;;;;;;;21.57;8.33;;;;;;;;;;5070452;28;20111;-83
2021/03/15 04:48:26;;;;;;;17.13;7.60;;;;;;;;;;5070516;28;20499;-83
2021/03/15 04:50:59;;;;;;;17.07;8.17;;;;;;;;;;5071412;28;20062;-83
2021/03/15 04:53:25;;;;;;;16.87;8.13;;;;;;;;;;5070386;28;20033;-83
2021/03/15 04:55:50;;;;;;;19.00;9.30;;;;;;;;;;5070125;28;20062;-83
2021/03/15 04:58:16;;;;;;;18.60;9.17;;;;;;;;;;5070029;28;20021;-83
2021/03/15 05:00:43;;;;;;;22.07;9.53;;;;;;;;;;5069824;28;20454;-83
2021/03/15 05:03:09;;;;;;;20.50;9.10;;;;;;;;;;5071616;28;20048;-83
2021/03/15 05:05:35;;;;;;;15.33;8.60;;;;;;;;;;5070024;28;20020;-83
2021/03/15 05:08:02;;;;;;;18.67;9.67;;;;;;;;;;5071715;28;20021;-83
2021/03/15 05:10:28;;;;;;;17.70;9.43;;;;;;;;;;5072474;28;20097;-83
2021/03/15 05:12:54;;;;;;;28.33;13.63;;;;;;;;;;5073617;28;20028;-84
2021/03/15 05:15:19;;;;;;;21.53;10.70;;;;;;;;;;5073649;28;20016;-83
2021/03/15 05:17:44;;;;;;;23.17;10.93;;;;;;;;;;5073387;28;20020;-83
2021/03/15 05:20:11;;;;;;;21.33;10.20;;;;;;;;;;5073307;28;20027;-84
2021/03/15 05:22:36;;;;;;;15.27;9.00;;;;;;;;;;5073181;28;20024;-83
2021/03/15 05:25:02;;;;;;;22.57;9.10;;;;;;;;;;5073460;28;20027;-83
2021/03/15 05:27:28;;;;;;;20.33;9.87;;;;;;;;;;5073384;28;20029;-83
2021/03/15 05:29:54;;;;;;;17.90;9.87;;;;;;;;;;5073250;28;20357;-83
2021/03/15 05:32:20;;;;;;;21.93;9.73;;;;;;;;;;5073487;28;20074;-84
2021/03/15 05:34:45;;;;;;;19.00;9.73;;;;;;;;;;5074485;28;20498;-83
2021/03/15 05:37:11;;;;;;;24.50;10.43;;;;;;;;;;5074435;28;20107;-83
2021/03/15 05:39:37;;;;;;;23.63;10.10;;;;;;;;;;5073434;28;20024;-83
2021/03/15 05:42:11;;;;;;;18.90;9.97;;;;;;;;;;5073123;28;20456;-83
2021/03/15 05:44:39;;;;;;;28.07;10.67;;;;;;;;;;5072913;28;20020;-83
2021/03/15 05:47:28;;;;;;;22.03;11.17;;;;;;;;;;5070888;28;20035;-83
2021/03/15 05:49:59;;;;;;;22.63;11.03;;;;;;;;;;5071135;28;20364;-83
2021/03/15 05:52:30;;;;;;;25.20;10.67;;;;;;;;;;5071206;28;20472;-83
2021/03/15 05:55:14;;;;;;;20.53;9.17;;;;;;;;;;5071452;28;20895;-83
2021/03/15 05:57:42;;;;;;;18.77;9.20;;;;;;;;;;5070609;28;20111;-83
2021/03/15 06:00:11;;;;;;;22.10;9.67;;;;;;;;;;5070497;28;20020;-83
2021/03/15 06:02:55;;;;;;;15.97;9.40;;;;;;;;;;5072531;28;20439;-83
2021/03/15 06:05:21;;;;;;;20.70;9.47;;;;;;;;;;5070921;28;20017;-83
2021/03/15 06:07:47;;;;;;;17.03;9.67;;;;;;;;;;5070679;28;20024;-83
2021/03/15 06:10:21;;;;;;;18.87;8.93;;;;;;;;;;5071144;28;20052;-83
2021/03/15 06:12:54;;;;;;;22.63;9.07;;;;;;;;;;5072690;28;20507;-83
2021/03/15 06:15:19;;;;;;;;;;;;;;;;;;5070662;28;20035;-83
2021/03/15 06:17:44;;;;;;;18.10;8.77;;;;;;;;;;5073586;28;19909;-83
2021/03/15 06:20:12;;;;;;;23.90;9.67;;;;;;;;;;5072576;28;20253;-83
2021/03/15 06:22:37;;;;;;;17.83;8.37;;;;;;;;;;5072243;28;20031;-83
2021/03/15 06:25:03;;;;;;;20.20;8.10;;;;;;;;;;5071910;28;20012;-83
2021/03/15 06:27:29;;;;;;;19.00;8.47;;;;;;;;;;5073698;28;20468;-83
2021/03/15 06:29:56;;;;;;;18.53;8.07;;;;;;;;;;5072386;28;20028;-83
2021/03/15 06:32:23;;;;;;;18.73;8.90;;;;;;;;;;5072457;28;20029;-83
2021/03/15 06:34:48;;;;;;;21.83;9.13;;;;;;;;;;5073590;28;20021;-82
2021/03/15 06:37:15;;;;;;;20.40;8.70;;;;;;;;;;5073382;28;20039;-83
2021/03/15 06:39:41;;;;;;;16.67;8.87;;;;;;;;;;5072605;28;20025;-83
2021/03/15 06:42:07;;;;;;;20.70;9.20;;;;;;;;;;5073352;28;20028;-83
2021/03/15 06:44:32;;;;;;;14.30;8.07;;;;;;;;;;5072219;28;20028;-83
2021/03/15 06:46:58;;;;;;;15.83;8.20;;;;;;;;;;5070499;28;20025;-83
2021/03/15 06:49:23;;;;;;;14.93;7.07;;;;;;;;;;5071382;28;20024;-83
2021/03/15 06:52:05;;;;;;;18.67;8.87;;;;;;;;;;5071075;28;20025;-83
2021/03/15 06:54:30;;;;;;;20.17;8.50;;;;;;;;;;5071955;28;20016;-83
2021/03/15 06:57:15;;;;;;;22.27;8.63;;;;;;;;;;5071142;28;20441;-82
2021/03/15 06:59:54;;;;;;;15.40;8.10;;;;;;;;;;5061095;28;20047;-83
2021/03/15 07:02:22;;;;;;;26.17;9.77;;;;;;;;;;5072709;28;20016;-83
2021/03/15 07:04:48;;;;;;;21.33;9.30;;;;;;;;;;5071690;28;20017;-83
2021/03/15 07:07:23;;;;;;;19.77;8.17;;;;;;;;;;5072643;28;20444;-83
2021/03/15 07:09:49;;;;;;;23.60;9.50;;;;;;;;;;5073132;28;20035;-83
2021/03/15 07:12:18;;;;;;;22.33;8.73;;;;;;;;;;5071107;28;20455;-83
2021/03/15 07:14:44;;;;;;;15.97;8.43;;;;;;;;;;5072562;28;20126;-83
2021/03/15 07:17:19;;;;;;;14.33;7.73;;;;;;;;;;5071094;28;20056;-83
2021/03/15 07:19:45;;;;;;;20.23;8.67;;;;;;;;;;5070374;28;20198;-83
2021/03/15 07:22:17;;;;;;;16.63;8.70;;;;;;;;;;5069853;28;20058;-83
2021/03/15 07:24:42;;;;;;;20.17;7.90;;;;;;;;;;5096256;28;20012;-83
2021/03/15 07:27:07;;;;;;;15.40;7.40;;;;;;;;;;5072653;28;20043;-83
2021/03/15 07:29:33;;;;;;;18.87;7.20;;;;;;;;;;5070881;28;20082;-83
2021/03/15 07:31:58;;;;;;;20.17;7.50;;;;;;;;;;5068425;28;20376;-83
2021/03/15 07:34:23;;;;;;;17.67;6.90;;;;;;;;;;5070410;28;20036;-82
2021/03/15 07:36:53;;;;;;;19.03;7.27;;;;;;;;;;5070628;28;20020;-82
2021/03/15 07:39:19;;;;;;;14.60;6.90;;;;;;;;;;5071187;28;20031;-83
2021/03/15 07:41:46;;;;;;;15.77;6.40;;;;;;;;;;5070985;28;20016;-82
2021/03/15 07:44:14;;;;;;;17.70;6.80;;;;;;;;;;5071018;28;20085;-83
2021/03/15 07:46:40;;;;;;;17.17;6.80;;;;;;;;;;5070841;28;20379;-82
2021/03/15 07:49:05;;;;;;;19.57;7.10;;;;;;;;;;5072595;28;20016;-82
2021/03/15 07:51:31;;;;;;;15.03;6.23;;;;;;;;;;5071096;28;20111;-82
2021/03/15 07:54:07;;;;;;;18.03;6.37;;;;;;;;;;5070550;28;20052;-82
2021/03/15 07:56:32;;;;;;;22.60;7.27;;;;;;;;;;5070944;28;20024;-82
2021/03/15 07:58:58;;;;;;;17.30;6.73;;;;;;;;;;5072439;28;20020;-83
2021/03/15 08:01:23;;;;;;;18.40;5.80;;;;;;;;;;5070960;28;20039;-82
2021/03/15 08:03:49;;;;;;;24.60;5.87;;;;;;;;;;5072230;28;20017;-82
2021/03/15 08:06:14;;;;;;;23.93;6.80;;;;;;;;;;5070732;28;20016;-82
2021/03/15 08:08:39;;;;;;;19.30;5.37;;;;;;;;;;5072059;28;20028;-82
2021/03/15 08:11:06;;;;;;;19.70;5.90;;;;;;;;;;5070577;28;20020;-83
2021/03/15 08:13:36;;;;;;;24.30;4.87;;;;;;;;;;5070978;28;20040;-82
2021/03/15 08:16:01;;;;;;;13.50;5.27;;;;;;;;;;5070766;28;20012;-82
2021/03/15 08:18:27;;;;;;;16.67;4.63;;;;;;;;;;5070346;28;20029;-82
2021/03/15 08:20:56;;;;;;;13.63;4.47;;;;;;;;;;5070402;28;20020;-82
2021/03/15 08:23:21;;;;;;;14.53;4.43;;;;;;;;;;5071995;28;20021;-82
2021/03/15 08:25:47;;;;;;;21.70;5.57;;;;;;;;;;5070347;28;20012;-82
2021/03/15 08:28:14;;;;;;;17.50;4.73;;;;;;;;;;5071695;28;20068;-82
2021/03/15 08:30:45;;;;;;;16.07;4.17;;;;;;;;;;5070372;28;20031;-82
2021/03/15 08:33:13;;;;;;;12.23;3.30;;;;;;;;;;5070845;28;20104;-82
2021/03/15 08:35:38;;;;;;;9.03;3.37;;;;;;;;;;5070558;28;20468;-82
2021/03/15 08:38:04;;;;;;;16.33;3.27;;;;;;;;;;5071723;28;20116;-82
2021/03/15 08:40:41;;;;;;;17.40;3.93;;;;;;;;;;5070252;28;20020;-82
2021/03/15 08:43:22;;;;;;;10.03;3.30;;;;;;;;;;5070483;28;20073;-82
2021/03/15 08:45:47;;;;;;;12.90;3.10;;;;;;;;;;5072047;28;20375;-82
2021/03/15 08:48:12;;;;;;;16.98;5.64;;;;;;;;;;5075880;28;20024;-82
2021/03/15 08:50:37;;;;;;;22.00;6.10;;;;;;;;;;5073933;28;20565;-82
2021/03/15 08:53:03;;;;;;;71.17;23.83;;;;;;;;;;5074369;28;20388;-82
2021/03/15 08:55:47;;;;;;;32.90;13.07;;;;;;;;;;5073823;28;20074;-82
2021/03/15 08:58:31;;;;;;;24.67;5.33;;;;;;;;;;5074295;28;20413;-82
2021/03/15 09:00:57;;;;;;;23.93;9.03;;;;;;;;;;5073939;28;20059;-82
2021/03/15 09:03:41;;;;;;;30.47;11.23;;;;;;;;;;5073267;28;20472;-83
2021/03/15 09:06:06;;;;;;;46.50;19.50;;;;;;;;;;5060029;28;20504;-84
2021/03/15 09:08:50;;;;;;;22.93;9.23;;;;;;;;;;5073761;28;20031;-84
2021/03/15 09:11:33;;;;;;;38.73;14.47;;;;;;;;;;5060512;28;20028;-84
2021/03/15 09:14:17;;;;;;;22.97;6.90;;;;;;;;;;5068574;28;20063;-83
2021/03/15 09:16:45;;;;;;;28.13;8.87;;;;;;;;;;5075234;28;20099;-83
2021/03/15 09:19:23;;;;;;;14.07;4.00;;;;;;;;;;5073942;28;20020;-83
2021/03/15 09:22:07;;;;;;;20.03;6.43;;;;;;;;;;5072386;28;20361;-83
2021/03/15 09:24:33;;;;;;;15.80;3.23;;;;;;;;;;5072345;28;20024;-83
2021/03/15 09:26:59;;;;;;;20.10;4.07;;;;;;;;;;5071868;28;20521;-83
2021/03/15 09:29:24;;;;;;;13.80;4.00;;;;;;;;;;5072367;28;20028;-83
2021/03/15 09:32:02;;;;;;;15.03;3.47;;;;;;;;;;5072050;28;20486;-83
2021/03/15 09:34:27;;;;;;;13.53;3.27;;;;;;;;;;5071885;28;20471;-83
2021/03/15 09:36:58;;;;;;;19.73;3.50;;;;;;;;;;5071744;28;20021;-83
2021/03/15 09:39:24;;;;;;;15.20;3.30;;;;;;;;;;5072204;28;20112;-83
2021/03/15 09:41:49;;;;;;;13.47;2.00;;;;;;;;;;5073365;28;20050;-83
2021/03/15 09:44:20;;;;;;;22.43;3.50;;;;;;;;;;5073225;28;20060;-83
2021/03/15 09:46:48;;;;;;;12.47;3.13;;;;;;;;;;5072869;28;20047;-83
2021/03/15 09:49:30;;;;;;;22.10;3.33;;;;;;;;;;5073467;28;20499;-83
2021/03/15 09:51:55;;;;;;;18.90;4.03;;;;;;;;;;5074511;28;20028;-83
2021/03/15 09:54:37;;;;;;;16.33;3.30;;;;;;;;;;5072915;28;20384;-83
2021/03/15 09:57:02;;;;;;;23.27;3.57;;;;;;;;;;5072598;28;20021;-83
2021/03/15 09:59:27;;;;;;;19.87;3.57;;;;;;;;;;5072891;28;20016;-83
2021/03/15 10:01:52;;;;;;;17.00;3.20;;;;;;;;;;5073038;28;20020;-83
2021/03/15 10:04:18;;;;;;;12.03;2.53;;;;;;;;;;5074048;28;20019;-83
2021/03/15 10:06:45;;;;;;;16.40;2.53;;;;;;;;;;5071837;28;20020;-83
2021/03/15 10:09:10;;;;;;;18.50;3.07;;;;;;;;;;5072099;28;20017;-82
2021/03/15 10:11:42;;;;;;;19.83;2.60;;;;;;;;;;5073815;28;20016;-81
2021/03/15 10:14:07;;;;;;;16.58;2.00;;;;;;;;;;5072892;28;20437;-85
2021/03/15 10:16:32;;;;;;;13.70;2.17;;;;;;;;;;5072817;28;20078;-84
2021/03/15 10:18:58;;;;;;;15.73;2.23;;;;;;;;;;5071377;28;20016;-85
2021/03/15 10:21:30;;;;;;;13.17;1.30;;;;;;;;;;5067064;28;20024;-84
2021/03/15 10:23:55;;;;;;;11.93;1.42;;;;;;;;;;5071660;28;20281;-85
2021/03/15 10:26:20;;;;;;;11.10;1.30;;;;;;;;;;5071065;28;20057;-84
2021/03/15 10:28:49;;;;;;;11.80;1.70;;;;;;;;;;5073410;28;20024;-85
2021/03/15 10:31:17;;;;;;;12.47;2.23;;;;;;;;;;5073082;28;20024;-85
2021/03/15 10:33:45;;;;;;;7.53;1.30;;;;;;;;;;5071392;28;20016;-84
2021/03/15 10:36:11;;;;;;;9.03;1.40;;;;;;;;;;5071376;28;20032;-84
2021/03/15 10:38:37;;;;;;;11.57;1.40;;;;;;;;;;5066212;28;20705;-81
2021/03/15 10:41:02;;;;;;;14.37;2.03;;;;;;;;;;5067575;28;20017;-82
2021/03/15 10:43:27;;;;;;;8.80;1.50;;;;;;;;;;5071576;28;20017;-81
2021/03/15 10:45:52;;;;;;;9.80;1.30;;;;;;;;;;5073028;28;20537;-82
2021/03/15 10:48:20;;;;;;;11.57;1.40;;;;;;;;;;5071891;28;20021;-81
2021/03/15 10:50:47;;;;;;;18.07;2.20;;;;;;;;;;5071808;28;20021;-81
2021/03/15 10:53:13;;;;;;;9.87;1.53;;;;;;;;;;5072047;28;20052;-81
2021/03/15 10:55:38;;;;;;;15.87;1.63;;;;;;;;;;5073254;28;20103;-82
2021/03/15 10:58:09;;;;;;;7.03;1.43;;;;;;;;;;5071591;28;20108;-82
2021/03/15 11:00:35;;;;;;;13.07;1.43;;;;;;;;;;5071010;28;20460;-82
2021/03/15 11:03:01;;;;;;;14.17;1.40;;;;;;;;;;5071896;28;20464;-82
2021/03/15 11:05:26;;;;;;;5.43;0.90;;;;;;;;;;5071374;28;20024;-82
2021/03/15 11:07:52;;;;;;;7.70;0.80;;;;;;;;;;5072773;28;20300;-82
2021/03/15 11:10:19;;;;;;;9.07;1.17;;;;;;;;;;5071312;28;20024;-82
2021/03/15 11:12:46;;;;;;;7.33;1.33;;;;;;;;;;5071587;28;20031;-82
2021/03/15 11:15:14;;;;;;;6.97;1.27;;;;;;;;;;5071616;28;20073;-83
2021/03/15 11:17:56;;;;;;;7.53;0.90;;;;;;;;;;5070555;28;20376;-83
2021/03/15 11:20:31;;;;;;;9.13;1.00;;;;;;;;;;5095139;28;20016;-82
2021/03/15 11:22:57;;;;;;;12.90;1.10;;;;;;;;;;5071007;28;20077;-82
2021/03/15 11:25:23;;;;;;;7.83;1.27;;;;;;;;;;5070898;28;20449;-83
2021/03/15 11:27:49;;;;;;;8.47;1.00;;;;;;;;;;5070674;28;20020;-82
2021/03/15 11:30:20;;;;;;;5.37;0.80;;;;;;;;;;5070967;28;20436;-82
2021/03/15 11:32:46;;;;;;;8.67;0.70;;;;;;;;;;5071143;28;20029;-82
2021/03/15 11:35:18;;;;;;;8.07;0.60;;;;;;;;;;5070891;28;20491;-81
2021/03/15 11:37:46;;;;;;;7.82;0.90;;;;;;;;;;5069356;28;20032;-81
2021/03/15 11:40:11;;;;;;;7.13;1.47;;;;;;;;;;5070853;28;20024;-82
2021/03/15 11:42:37;;;;;;;4.63;0.80;;;;;;;;;;5071188;28;20038;-82
2021/03/15 11:45:02;;;;;;;3.47;0.80;;;;;;;;;;5071134;28;20020;-81
2021/03/15 11:47:28;;;;;;;10.57;1.50;;;;;;;;;;5071318;28;20047;-81
2021/03/15 11:49:53;;;;;;;10.33;1.03;;;;;;;;;;5064869;28;20032;-83
2021/03/15 11:52:26;;;;;;;9.77;1.33;;;;;;;;;;5070046;28;20677;-82
2021/03/15 11:54:51;;;;;;;12.90;1.20;;;;;;;;;;5072166;28;20021;-82
2021/03/15 11:57:16;;;;;;;13.43;1.23;;;;;;;;;;5070126;28;20078;-82
2021/03/15 11:59:41;;;;;;;11.37;1.17;;;;;;;;;;5070729;28;20044;-82
2021/03/15 12:02:07;;;;;;;11.60;1.20;;;;;;;;;;5071219;28;20024;-81
2021/03/15 12:04:32;;;;;;;9.50;1.13;;;;;;;;;;5070877;28;20476;-81
2021/03/15 12:06:58;;;;;;;8.33;1.33;;;;;;;;;;5070530;28;20512;-81
2021/03/15 12:09:25;;;;;;;7.73;0.77;;;;;;;;;;5070185;28;20112;-82
2021/03/15 12:11:50;;;;;;;13.43;1.70;;;;;;;;;;5070813;28;20089;-82
2021/03/15 12:14:15;;;;;;;10.10;1.20;;;;;;;;;;5071873;28;20534;-82
2021/03/15 12:16:41;;;;;;;9.67;0.83;;;;;;;;;;5070036;28;20048;-81
2021/03/15 12:19:06;;;;;;;9.40;1.00;;;;;;;;;;5073021;28;20463;-81
2021/03/15 12:21:31;;;;;;;4.90;1.20;;;;;;;;;;5076993;28;20016;-81
2021/03/15 12:23:56;;;;;;;12.70;1.23;;;;;;;;;;5077207;28;20047;-82
2021/03/15 12:26:21;;;;;;;10.17;1.13;;;;;;;;;;5077130;28;20482;-82
2021/03/15 12:28:47;;;;;;;9.57;1.27;;;;;;;;;;5077320;28;20024;-81
2021/03/15 12:31:12;;;;;;;6.27;0.77;;;;;;;;;;5076370;28;20706;-82
2021/03/15 12:33:37;;;;;;;6.77;1.00;;;;;;;;;;5075189;28;20052;-82
2021/03/15 12:36:02;;;;;;;9.00;0.93;;;;;;;;;;5078311;28;20016;-81
2021/03/15 12:38:28;;;;;;;6.67;0.80;;;;;;;;;;5076150;28;20047;-82
2021/03/15 12:40:53;;;;;;;10.80;1.17;;;;;;;;;;5076978;28;20021;-81
2021/03/15 12:43:18;;;;;;;7.63;0.97;;;;;;;;;;5077080;28;20069;-81
2021/03/15 12:45:43;;;;;;;13.27;2.30;;;;;;;;;;5077015;28;20107;-81
2021/03/15 12:48:09;;;;;;;10.83;1.40;;;;;;;;;;5076620;28;20036;-81
2021/03/15 12:50:34;;;;;;;7.50;0.90;;;;;;;;;;5078293;28;20472;-81
2021/03/15 12:52:59;;;;;;;11.07;1.47;;;;;;;;;;5077014;28;20058;-82
2021/03/15 12:55:24;;;;;;;12.83;1.30;;;;;;;;;;5077096;28;20525;-82
2021/03/15 12:57:50;;;;;;;13.90;1.63;;;;;;;;;;5076662;28;20163;-82
2021/03/15 13:00:15;;;;;;;7.47;1.50;;;;;;;;;;5076815;28;20021;-82
2021/03/15 13:02:40;;;;;;;9.57;1.53;;;;;;;;;;5076899;28;20016;-81
2021/03/15 13:05:06;;;;;;;13.00;1.70;;;;;;;;;;5077859;28;20810;-82
2021/03/15 13:07:31;;;;;;;12.63;2.33;;;;;;;;;;5076772;28;20028;-82
2021/03/15 13:09:56;;;;;;;6.60;1.13;;;;;;;;;;5075682;28;20032;-82
2021/03/15 13:12:22;;;;;;;12.80;1.60;;;;;;;;;;5075821;28;20024;-82
2021/03/15 13:14:47;;;;;;;6.97;1.20;;;;;;;;;;5076775;28;20052;-82
2021/03/15 13:17:12;;;;;;;13.27;1.30;;;;;;;;;;5076598;28;20036;-82
2021/03/15 13:19:37;;;;;;;9.17;1.00;;;;;;;;;;5076988;28;20020;-81
2021/03/15 13:22:03;;;;;;;7.33;1.20;;;;;;;;;;5077744;28;20399;-82
2021/03/15 13:24:28;;;;;;;15.73;1.77;;;;;;;;;;5077769;28;20531;-82
2021/03/15 13:26:53;;;;;;;18.67;1.53;;;;;;;;;;5076790;28;20460;-81
2021/03/15 13:29:18;;;;;;;13.67;1.17;;;;;;;;;;5076565;28;20016;-82
2021/03/15 13:31:44;;;;;;;10.73;1.83;;;;;;;;;;5069292;28;20020;-82
2021/03/15 13:34:09;;;;;;;9.80;1.47;;;;;;;;;;5073719;28;20012;-82
2021/03/15 13:36:34;;;;;;;15.00;1.80;;;;;;;;;;5073364;28;20017;-81
2021/03/15 13:38:59;;;;;;;14.67;1.90;;;;;;;;;;5073371;28;20475;-81
2021/03/15 13:41:24;;;;;;;10.13;1.70;;;;;;;;;;5072575;28;20017;-81
2021/03/15 13:43:50;;;;;;;7.87;1.03;;;;;;;;;;5073160;28;20016;-81
2021/03/15 13:46:15;;;;;;;11.07;1.40;;;;;;;;;;5073252;28;20134;-81
2021/03/15 13:48:40;;;;;;;11.77;1.73;;;;;;;;;;5071427;28;20028;-81
2021/03/15 13:51:05;;;;;;;10.10;1.50;;;;;;;;;;5073345;28;20675;-81
2021/03/15 13:53:30;;;;;;;8.57;1.07;;;;;;;;;;5072750;28;20067;-81
2021/03/15 13:55:56;;;;;;;5.53;0.97;;;;;;;;;;5073138;28;20095;-81
2021/03/15 13:58:21;;;;;;;12.73;1.43;;;;;;;;;;5072897;28;20024;-81
2021/03/15 14:00:46;;;;;;;6.33;0.93;;;;;;;;;;5072948;28;20040;-81
2021/03/15 14:03:11;;;;;;;13.30;1.20;;;;;;;;;;5073215;28;20017;-81
2021/03/15 14:05:37;;;;;;;10.10;1.20;;;;;;;;;;5072742;28;20016;-81
2021/03/15 14:08:02;;;;;;;6.70;1.10;;;;;;;;;;5072566;28;20025;-81
2021/03/15 14:10:28;;;;;;;5.33;0.97;;;;;;;;;;5073018;28;20017;-82
2021/03/15 14:12:53;;;;;;;11.10;1.60;;;;;;;;;;5072913;28;20028;-81
2021/03/15 14:15:20;;;;;;;13.47;1.57;;;;;;;;;;5072946;28;20356;-81
2021/03/15 14:17:45;;;;;;;11.07;1.30;;;;;;;;;;5072395;28;20027;-81
2021/03/15 14:20:10;;;;;;;6.70;1.60;;;;;;;;;;5072713;28;20391;-81
2021/03/15 14:22:35;;;;;;;7.97;1.20;;;;;;;;;;5072906;28;20020;-81
2021/03/15 14:25:01;;;;;;;9.30;1.20;;;;;;;;;;5072873;28;20016;-81
2021/03/15 14:27:26;;;;;;;12.00;1.67;;;;;;;;;;5070883;28;20037;-81
2021/03/15 14:29:52;;;;;;;14.77;1.50;;;;;;;;;;5063537;28;20391;-82
2021/03/15 14:32:17;;;;;;;11.03;1.10;;;;;;;;;;5073217;28;20028;-81